Time;durP1;ratioP1;P1;durP2;ratioP2;P2;SDS_P1;SDS_P2;PMS_P1;PMS_P2;Temp;Humidity;BMP_temperature;BMP_pressure;BME280_temperature;BME280_humidity;BME280_pressure;Samples;Min_cycle;Max_cycle;Signal;HPM_P1;HPM_P2
2021/06/17 00:00:20;;;;;;;;;13.00;12.25;;;;;30.87;36.32;100331.16;5077210;28;45314;-82
2021/06/17 00:02:47;;;;;;;;;13.25;13.00;;;;;30.95;37.24;100340.59;5059825;28;45616;-82
2021/06/17 00:05:16;;;;;;;;;14.75;13.25;;;;;30.85;36.79;100327.66;5061238;28;45734;-82
2021/06/17 00:07:43;;;;;;;;;12.75;12.50;;;;;30.87;37.32;100343.66;5078377;28;45369;-82
2021/06/17 00:10:14;;;;;;;;;14.25;12.75;;;;;30.89;37.03;100349.78;5077793;27;45317;-82
2021/06/17 00:12:39;;;;;;;;;15.75;13.50;;;;;30.85;37.82;100346.38;5077331;27;45321;-82
2021/06/17 00:15:08;;;;;;;;;12.25;10.75;;;;;30.82;37.10;100345.66;5058166;28;47438;-81
2021/06/17 00:17:34;;;;;;;;;12.75;12.75;;;;;30.81;37.87;100344.81;5076070;28;45608;-82
2021/06/17 00:19:59;;;;;;;;;12.50;12.50;;;;;30.73;38.00;100338.94;5074957;28;45387;-82
2021/06/17 00:22:25;;;;;;;;;16.00;14.25;;;;;30.76;37.13;100359.34;5064280;28;45582;-81
2021/06/17 00:24:51;;;;;;;;;12.00;11.50;;;;;30.70;37.73;100357.81;5061044;28;47226;-81
2021/06/17 00:27:16;;;;;;;;;13.50;13.50;;;;;30.72;37.71;100354.13;5066726;28;45554;-81
2021/06/17 00:29:42;;;;;;;;;13.25;13.25;;;;;30.71;37.75;100348.88;5062065;28;45755;-82
2021/06/17 00:32:08;;;;;;;;;11.50;11.00;;;;;30.67;37.67;100334.75;5061657;28;45471;-81
2021/06/17 00:34:34;;;;;;;;;13.00;12.25;;;;;30.70;37.91;100323.94;5062642;28;45439;-83
2021/06/17 00:36:59;;;;;;;;;12.00;12.00;;;;;30.78;37.76;100336.94;5060308;28;45233;-83
2021/06/17 00:39:25;;;;;;;;;13.75;12.00;;;;;30.83;37.48;100328.69;5059290;28;45312;-83
2021/06/17 00:41:51;;;;;;;;;12.50;12.50;;;;;30.84;37.47;100328.59;5059133;28;45357;-82
2021/06/17 00:44:16;;;;;;;;;12.25;12.25;;;;;30.88;37.50;100322.19;5059504;28;46246;-83
2021/06/17 00:46:42;;;;;;;;;13.25;11.00;;;;;30.89;36.93;100301.66;5041106;28;45444;-81
2021/06/17 00:49:08;;;;;;;;;10.75;10.75;;;;;30.91;37.51;100304.28;5058861;28;45320;-82
2021/06/17 00:51:33;;;;;;;;;13.25;13.25;;;;;30.94;37.56;100302.31;5059473;28;45704;-83
2021/06/17 00:53:59;;;;;;;;;14.00;13.00;;;;;30.98;37.83;100287.88;5058774;28;45421;-82
2021/06/17 00:56:26;;;;;;;;;11.75;10.25;;;;;31.02;36.71;100283.22;5058931;28;45426;-82
2021/06/17 00:58:52;;;;;;;;;11.50;11.50;;;;;30.97;36.83;100269.22;5058790;28;45402;-82
2021/06/17 01:01:18;;;;;;;;;11.75;11.75;;;;;30.99;37.08;100273.53;5041250;28;45398;-83
2021/06/17 01:03:44;;;;;;;;;13.75;12.00;;;;;31.08;37.71;100298.09;5057562;28;47772;-83
2021/06/17 01:06:10;;;;;;;;;11.50;11.50;;;;;31.04;37.15;100292.91;5058575;28;45361;-83
2021/06/17 01:08:48;;;;;;;;;12.50;11.75;;;;;31.00;37.01;100274.41;5059250;28;45280;-82
2021/06/17 01:11:34;;;;;;;;;15.00;13.25;;;;;30.96;37.56;100257.66;5059701;28;45229;-82
2021/06/17 01:14:09;;;;;;;;;10.75;10.75;;;;;30.97;37.15;100255.84;5036525;28;47862;-81
2021/06/17 01:16:51;;;;;;;;;13.50;13.50;;;;;31.01;36.89;100252.94;5040378;28;45308;-82
2021/06/17 01:19:31;;;;;;;;;16.75;14.75;;;;;31.03;37.33;100252.88;5059164;28;45245;-81
2021/06/17 01:22:12;;;;;;;;;14.00;12.25;;;;;30.99;37.42;100249.47;5058845;28;45362;-82
2021/06/17 01:24:56;;;;;;;;;11.75;11.00;;;;;31.06;37.32;100252.69;5058171;28;46060;-82
2021/06/17 01:27:40;;;;;;;;;11.50;10.00;;;;;31.08;37.56;100253.50;5058594;28;45280;-82
2021/06/17 01:30:11;;;;;;;;;12.25;12.25;;;;;31.02;37.39;100252.00;5058458;28;45346;-83
2021/06/17 01:32:39;;;;;;;;;10.75;10.75;;;;;31.09;37.47;100284.66;5058658;28;45676;-82
2021/06/17 01:35:06;;;;;;;;;12.50;11.50;;;;;31.09;37.15;100281.97;5058018;28;45492;-82
2021/06/17 01:37:34;;;;;;;;;13.50;13.50;;;;;31.12;37.65;100279.19;5058022;28;45221;-83
2021/06/17 01:40:02;;;;;;;;;14.00;13.00;;;;;31.13;37.66;100272.00;5058352;28;45430;-83
2021/06/17 01:42:30;;;;;;;;;14.25;13.25;;;;;31.08;37.69;100285.59;5058716;28;45402;-83
2021/06/17 01:44:58;;;;;;;;;11.00;11.00;;;;;31.03;37.69;100296.50;5057978;28;45339;-83
2021/06/17 01:47:26;;;;;;;;;15.25;12.50;;;;;30.95;37.91;100317.41;5058485;28;45288;-82
2021/06/17 01:49:53;;;;;;;;;11.00;11.00;;;;;30.92;37.81;100396.91;5058131;28;45430;-82
2021/06/17 01:52:22;;;;;;;;;19.00;16.50;;;;;30.62;38.91;100526.50;5058371;28;45450;-83
2021/06/17 01:54:50;;;;;;;;;11.75;9.75;;;;;30.30;41.76;100544.75;5057655;28;45354;-81
2021/06/17 01:57:18;;;;;;;;;9.00;6.50;;;;;29.17;49.07;100613.13;5058494;28;45471;-82
2021/06/17 01:59:47;;;;;;;;;5.00;4.00;;;;;27.90;52.02;100756.50;5058488;28;45375;-80
2021/06/17 02:02:15;;;;;;;;;3.00;1.00;;;;;26.74;53.77;100666.44;5058660;28;45583;-81
2021/06/17 02:04:47;;;;;;;;;4.25;3.50;;;;;25.54;56.84;100665.53;5057798;28;45383;-82
2021/06/17 02:07:14;;;;;;;;;5.75;5.75;;;;;24.92;64.38;100584.56;5058293;28;45368;-81
2021/06/17 02:09:41;;;;;;;;;8.50;7.00;;;;;24.60;60.83;100583.31;5056731;28;45346;-82
2021/06/17 02:12:08;;;;;;;;;9.00;7.25;;;;;24.39;63.07;100542.22;5058031;28;45902;-85
2021/06/17 02:14:35;;;;;;;;;9.50;9.50;;;;;24.33;62.72;100524.69;5039907;28;48212;-82
2021/06/17 02:17:02;;;;;;;;;8.00;7.50;;;;;24.08;61.77;100469.53;5057516;28;45783;-83
2021/06/17 02:19:32;;;;;;;;;7.50;7.50;;;;;24.32;62.17;100475.31;5057910;28;45249;-82
2021/06/17 02:22:00;;;;;;;;;10.75;9.00;;;;;24.42;61.63;100483.94;5057723;28;45425;-83
2021/06/17 02:24:27;;;;;;;;;10.75;8.00;;;;;24.54;61.98;100493.44;5057558;28;45308;-82
2021/06/17 02:26:57;;;;;;;;;12.50;11.00;;;;;24.57;61.64;100485.44;5038972;28;45652;-81
2021/06/17 02:29:28;;;;;;;;;11.00;8.75;;;;;24.65;61.50;100496.78;5057633;28;45461;-84
2021/06/17 02:31:57;;;;;;;;;9.00;8.75;;;;;24.72;61.51;100524.91;5039474;28;45367;-82
2021/06/17 02:34:24;;;;;;;;;12.00;9.00;;;;;24.66;61.41;100622.94;5057296;28;45487;-82
2021/06/17 02:36:51;;;;;;;;;11.00;11.00;;;;;24.56;61.42;100727.22;5057224;28;45665;-82
2021/06/17 02:39:23;;;;;;;;;8.75;8.00;;;;;24.41;61.98;100738.88;5057644;28;45280;-82
2021/06/17 02:41:53;;;;;;;;;7.00;7.00;;;;;24.61;61.22;100766.84;5057280;28;45508;-83
2021/06/17 02:44:23;;;;;;;;;8.00;8.00;;;;;24.39;62.69;100752.13;5057213;28;45445;-84
2021/06/17 02:46:49;;;;;;;;;13.00;10.75;;;;;24.40;61.43;100776.84;5056782;28;45802;-81
2021/06/17 02:49:14;;;;;;;;;9.50;8.50;;;;;24.42;61.00;100728.28;5057182;28;45414;-81
2021/06/17 02:51:40;;;;;;;;;9.00;8.00;;;;;24.39;60.58;100664.81;5057701;28;45291;-81
2021/06/17 02:54:05;;;;;;;;;7.25;6.25;;;;;24.45;60.61;100671.78;5056710;28;45397;-81
2021/06/17 02:56:45;;;;;;;;;6.75;6.25;;;;;24.58;60.63;100670.69;5056800;28;45269;-81
2021/06/17 02:59:48;;;;;;;;;11.00;8.75;;;;;24.73;61.21;100655.47;5056671;28;45367;-82
2021/06/17 03:02:20;;;;;;;;;9.00;8.25;;;;;24.68;60.37;100634.38;5057432;28;45637;-81
2021/06/17 03:05:09;;;;;;;;;7.25;7.00;;;;;24.79;60.34;100659.81;5056737;28;45952;-80
2021/06/17 03:07:41;;;;;;;;;7.25;7.25;;;;;24.82;60.68;100647.41;5056991;28;45828;-80
2021/06/17 03:10:10;;;;;;;;;7.25;7.00;;;;;24.83;60.88;100616.50;5056844;28;45368;-80
2021/06/17 03:12:38;;;;;;;;;7.75;6.50;;;;;24.82;60.21;100590.91;5057150;28;45316;-80
2021/06/17 03:15:06;;;;;;;;;9.25;8.25;;;;;24.84;60.43;100597.06;5056386;28;45519;-79
2021/06/17 03:17:42;;;;;;;;;9.00;9.00;;;;;24.87;59.78;100578.47;5056673;28;45648;-81
2021/06/17 03:20:10;;;;;;;;;10.50;9.50;;;;;24.86;59.24;100521.13;5056700;28;45441;-81
2021/06/17 03:22:38;;;;;;;;;8.75;6.75;;;;;24.70;59.93;100529.34;5056856;28;45426;-81
2021/06/17 03:25:11;;;;;;;;;7.75;7.25;;;;;24.81;59.91;100528.25;5056153;28;45459;-80
2021/06/17 03:27:38;;;;;;;;;10.50;9.50;;;;;24.80;60.35;100526.50;5056417;28;45458;-79
2021/06/17 03:30:06;;;;;;;;;10.25;9.00;;;;;24.79;59.68;100528.31;5056413;28;45344;-79
2021/06/17 03:32:33;;;;;;;;;9.25;8.00;;;;;24.91;61.11;100548.38;5057165;28;45309;-79
2021/06/17 03:35:01;;;;;;;;;9.50;8.00;;;;;24.96;59.87;100540.34;5059291;28;45915;-77
2021/06/17 03:37:29;;;;;;;;;12.25;9.00;;;;;25.07;59.61;100518.94;5063585;28;45689;-77
2021/06/17 03:39:57;;;;;;;;;7.25;7.00;;;;;25.08;60.46;100484.47;5064922;28;45403;-78
2021/06/17 03:42:23;;;;;;;;;10.50;10.00;;;;;25.22;59.32;100475.38;5058785;28;45592;-78
2021/06/17 03:44:51;;;;;;;;;10.50;8.00;;;;;25.24;58.73;100431.16;5056060;28;46260;-79
2021/06/17 03:47:17;;;;;;;;;9.75;9.00;;;;;25.22;59.07;100422.38;5056620;28;45860;-79
2021/06/17 03:49:45;;;;;;;;;10.00;9.25;;;;;25.23;59.98;100416.19;5057361;28;45390;-78
2021/06/17 03:52:15;;;;;;;;;15.25;8.25;;;;;25.31;58.94;100427.47;5056774;28;45372;-81
2021/06/17 03:54:43;;;;;;;;;10.75;8.25;;;;;25.29;59.49;100442.53;5056152;28;46543;-80
2021/06/17 03:57:09;;;;;;;;;10.00;8.75;;;;;25.31;59.54;100468.09;5058076;28;45733;-81
2021/06/17 03:59:39;;;;;;;;;8.00;7.75;;;;;25.34;59.30;100469.81;5056822;28;45325;-81
2021/06/17 04:02:05;;;;;;;;;10.25;8.75;;;;;25.39;59.90;100483.81;5056805;28;45593;-80
2021/06/17 04:04:32;;;;;;;;;10.75;10.75;;;;;25.40;59.86;100497.94;5056904;28;45579;-81
2021/06/17 04:07:00;;;;;;;;;8.75;7.75;;;;;25.34;59.98;100507.75;5056098;28;45929;-84
2021/06/17 04:09:30;;;;;;;;;9.75;9.00;;;;;25.28;59.80;100504.38;5056419;28;45242;-82
2021/06/17 04:11:59;;;;;;;;;11.50;10.00;;;;;25.35;60.45;100521.91;5057096;28;45309;-84
2021/06/17 04:14:26;;;;;;;;;9.50;8.25;;;;;25.39;59.79;100528.00;5059328;28;46070;-81
2021/06/17 04:16:54;;;;;;;;;11.25;8.25;;;;;25.27;59.18;100510.59;5059291;28;45360;-83
2021/06/17 04:19:27;;;;;;;;;11.50;10.25;;;;;25.21;59.15;100514.25;5041035;28;45217;-82
2021/06/17 04:21:58;;;;;;;;;9.50;8.25;;;;;25.22;60.41;100502.72;5069682;28;45410;-79
2021/06/17 04:24:25;;;;;;;;;9.00;9.00;;;;;25.26;59.83;100492.97;5050475;28;45810;-77
2021/06/17 04:26:53;;;;;;;;;10.25;8.50;;;;;25.23;60.28;100495.66;5061601;28;44986;-78
2021/06/17 04:29:20;;;;;;;;;6.00;6.00;;;;;25.31;58.80;100501.66;5038661;28;45576;-88
2021/06/17 04:31:47;;;;;;;;;8.00;7.00;;;;;25.18;58.88;100488.66;5057691;28;45605;-81
